Time;durP1;ratioP1;P1;durP2;ratioP2;P2;SDS_P1;SDS_P2;PMS_P1;PMS_P2;Temp;Humidity;BMP_temperature;BMP_pressure;BME280_temperature;BME280_humidity;BME280_pressure;Samples;Min_cycle;Max_cycle;Signal;HPM_P1;HPM_P2
2022/10/02 00:00:06;;;;;;;40.10;5.00;;;;;;;13.16;93.28;101025.47;5068639;28;20072;-53
2022/10/02 00:02:45;;;;;;;30.42;4.00;;;;;;;13.07;93.98;101035.25;5068441;28;20083;-53
2022/10/02 00:05:18;;;;;;;38.72;4.40;;;;;;;13.10;93.95;101022.59;5067214;28;20037;-53
2022/10/02 00:08:02;;;;;;;27.27;4.93;;;;;;;13.24;93.37;101029.97;5067409;28;20521;-54
2022/10/02 00:10:52;;;;;;;27.13;4.07;;;;;;;13.16;94.00;101033.44;5067731;28;20037;-55
2022/10/02 00:13:27;;;;;;;33.65;4.78;;;;;;;13.09;94.82;101034.28;5065868;28;20073;-54
2022/10/02 00:15:55;;;;;;;29.67;4.43;;;;;;;13.15;94.91;101041.59;5068498;28;20041;-53
2022/10/02 00:18:27;;;;;;;29.88;4.20;;;;;;;13.07;95.86;101035.25;5068377;28;20052;-54
2022/10/02 00:23:53;;;;;;;39.25;4.78;;;;;;;13.29;94.86;101037.47;5110035;27;20383;-53
2022/10/02 00:26:30;;;;;;;27.20;3.90;;;;;;;13.25;95.20;101036.97;5108506;28;20771;-54
2022/10/02 00:29:37;;;;;;;34.08;4.70;;;;;;;13.39;95.30;101039.03;5109996;28;20052;-55
2022/10/02 00:32:36;;;;;;;32.25;4.22;;;;;;;13.39;94.67;101036.34;5110263;28;20553;-54
2022/10/02 00:35:30;;;;;;;37.95;4.10;;;;;;;13.48;94.50;101036.34;5109102;28;20473;-54
2022/10/02 00:38:09;;;;;;;32.65;4.47;;;;;;;13.43;95.14;101042.19;5109798;28;20067;-53
2022/10/02 00:41:16;;;;;;;31.63;4.97;;;;;;;13.37;95.12;101049.00;5110642;28;20046;-52
2022/10/02 00:43:59;;;;;;;31.20;4.57;;;;;;;13.32;95.65;101058.50;5109905;28;20514;-55
2022/10/02 00:46:44;;;;;;;37.63;4.20;;;;;;;13.48;95.37;101047.00;5110094;28;20044;-54
2022/10/02 00:49:34;;;;;;;38.42;4.38;;;;;;;13.47;94.92;101048.84;5110120;28;20044;-55
2022/10/02 00:52:26;;;;;;;38.75;4.22;;;;;;;13.39;95.14;101056.84;5021236;28;20043;-55
2022/10/02 00:55:21;;;;;;;39.33;5.07;;;;;;;13.51;95.42;101055.50;5109715;28;20051;-55
2022/10/02 00:58:06;;;;;;;33.75;4.80;;;;;;;13.55;94.62;101056.88;5110475;28;20040;-54
2022/10/02 01:00:34;;;;;;;36.33;4.40;;;;;;;13.56;94.64;101047.84;5110554;28;20122;-53
2022/10/02 01:03:27;;;;;;;41.67;4.53;;;;;;;13.46;95.07;101047.16;5109939;28;20477;-54
2022/10/02 01:05:54;;;;;;;32.35;4.50;;;;;;;13.53;95.26;101055.34;5108591;28;20050;-54
2022/10/02 01:08:20;;;;;;;39.92;4.68;;;;;;;13.47;95.66;101064.00;5110392;28;20093;-54
2022/10/02 01:10:47;;;;;;;34.15;4.80;;;;;;;13.53;95.53;101066.00;5109752;28;20508;-55
2022/10/02 01:13:14;;;;;;;36.38;4.20;;;;;;;13.44;95.64;101067.81;5109898;28;20040;-54
2022/10/02 01:15:48;;;;;;;37.00;4.72;;;;;;;13.47;95.93;101056.84;5108481;28;20043;-55
2022/10/02 01:18:16;;;;;;;31.40;4.75;;;;;;;13.64;95.37;101065.66;5093122;28;20134;-54
2022/10/02 01:20:45;;;;;;;41.60;5.20;;;;;;;13.53;95.97;101063.34;5088874;28;20153;-55
2022/10/02 01:23:46;;;;;;;29.48;5.13;;;;;;;13.63;95.84;101064.03;5087369;28;20506;-55
2022/10/02 01:26:12;;;;;;;29.77;4.72;;;;;;;13.62;95.66;101065.00;5104138;28;20071;-54
2022/10/02 01:28:39;;;;;;;36.45;5.00;;;;;;;13.66;95.48;101066.38;5089135;28;20056;-53
2022/10/02 01:31:09;;;;;;;24.58;4.25;;;;;;;13.65;95.90;101070.00;5089364;28;20050;-53
2022/10/02 01:33:40;;;;;;;35.67;4.60;;;;;;;13.67;95.65;101061.84;5084167;28;20482;-54
2022/10/02 01:36:09;;;;;;;40.35;4.90;;;;;;;13.67;95.82;101062.69;5057379;28;20383;-55
2022/10/02 01:38:37;;;;;;;34.28;5.60;;;;;;;13.62;96.64;101062.34;5090562;28;20397;-55
2022/10/02 01:41:06;;;;;;;48.35;4.80;;;;;;;13.69;96.52;101073.19;5077946;28;20047;-55
2022/10/02 01:43:35;;;;;;;36.97;5.13;;;;;;;13.69;95.73;101073.19;5095525;28;20499;-55
2022/10/02 01:46:28;;;;;;;37.22;4.47;;;;;;;13.74;96.12;101074.34;5095797;28;20542;-55
2022/10/02 01:49:23;;;;;;;35.53;4.97;;;;;;;13.75;95.79;101072.50;5095560;28;20459;-54
2022/10/02 01:52:11;;;;;;;39.42;4.88;;;;;;;13.70;96.67;101074.84;5057080;28;20044;-55
2022/10/02 01:55:05;;;;;;;38.67;4.53;;;;;;;13.78;96.02;101073.00;5095679;28;20074;-54
2022/10/02 01:57:53;;;;;;;40.60;4.68;;;;;;;13.71;96.17;101079.19;5095103;28;20048;-55
2022/10/02 02:00:23;;;;;;;54.35;5.03;;;;;;;13.73;96.32;101074.50;5094647;28;20051;-55
2022/10/02 02:03:20;;;;;;;44.17;5.60;;;;;;;13.72;96.62;101075.53;5093893;28;20055;-55
2022/10/02 02:05:55;;;;;;;39.78;4.68;;;;;;;13.81;96.22;101075.34;5093512;28;20101;-55
2022/10/02 02:08:47;;;;;;;42.78;4.78;;;;;;;13.67;97.14;101075.19;5076430;28;20444;-55
2022/10/02 02:11:17;;;;;;;39.00;5.63;;;;;;;13.71;96.39;101077.34;5085415;28;20083;-55
2022/10/02 02:13:52;;;;;;;42.88;5.50;;;;;;;13.71;97.12;101079.19;5090114;28;20045;-54
2022/10/02 02:16:31;;;;;;;43.03;4.63;;;;;;;13.56;97.54;101071.00;5078725;28;20048;-55
2022/10/02 02:19:22;;;;;;;49.72;6.55;;;;;;;13.59;97.68;101063.53;5093831;28;20074;-56
2022/10/02 02:21:57;;;;;;;45.78;5.00;;;;;;;13.83;96.70;101070.69;5089479;28;20044;-55
2022/10/02 02:24:45;;;;;;;42.47;5.22;;;;;;;13.77;96.08;101074.03;5083480;28;20040;-55
2022/10/02 02:27:18;;;;;;;48.63;5.03;;;;;;;13.90;96.28;101070.00;5095043;28;20040;-55
2022/10/02 02:29:49;;;;;;;44.20;5.50;;;;;;;13.93;95.90;101075.00;5087111;28;20059;-55
2022/10/02 02:32:22;;;;;;;39.53;4.93;;;;;;;13.72;97.18;101064.84;5074622;28;20120;-55
2022/10/02 02:34:56;;;;;;;43.10;4.75;;;;;;;13.78;96.64;101057.00;5093707;28;20033;-55
2022/10/02 02:37:28;;;;;;;43.95;4.78;;;;;;;13.95;95.83;101071.19;5095387;28;20040;-55
2022/10/02 02:40:00;;;;;;;40.67;5.10;;;;;;;13.90;96.09;101064.66;5082832;28;20044;-55
2022/10/02 02:42:36;;;;;;;42.60;5.53;;;;;;;13.76;97.17;101066.19;5093296;28;20043;-54
2022/10/02 02:45:13;;;;;;;41.58;4.82;;;;;;;13.95;96.28;101078.34;5093076;28;20072;-55
2022/10/02 02:47:46;;;;;;;52.80;5.05;;;;;;;13.86;96.21;101080.19;5094549;28;20062;-55
2022/10/02 02:50:26;;;;;;;40.45;4.63;;;;;;;13.92;96.83;101079.50;5075303;28;20037;-55
2022/10/02 02:53:01;;;;;;;41.10;4.50;;;;;;;14.00;96.00;101079.50;5042107;28;20047;-55
2022/10/02 02:55:33;;;;;;;40.53;5.03;;;;;;;14.02;95.90;101079.31;5074481;28;20041;-55
2022/10/02 02:58:08;;;;;;;50.80;5.45;;;;;;;14.00;96.08;101086.66;5074234;28;20119;-53
2022/10/02 03:00:34;;;;;;;50.78;4.65;;;;;;;13.96;96.51;101086.16;5088182;28;20111;-54
2022/10/02 03:03:01;;;;;;;45.13;5.55;;;;;;;13.97;96.41;101081.66;5093206;28;20040;-56
2022/10/02 03:05:29;;;;;;;36.40;4.72;;;;;;;13.93;96.88;101083.81;5064493;28;20889;-55
2022/10/02 03:08:11;;;;;;;43.83;4.75;;;;;;;14.16;95.48;101091.16;5086204;28;20052;-52
2022/10/02 03:11:18;;;;;;;47.67;4.90;;;;;;;14.15;95.31;101085.00;5093259;28;20048;-55
2022/10/02 03:14:24;;;;;;;44.10;5.15;;;;;;;14.10;95.48;101074.00;5094127;28;20047;-53
2022/10/02 03:17:08;;;;;;;39.22;4.88;;;;;;;14.04;95.99;101076.50;5077606;28;20451;-55
2022/10/02 03:19:59;;;;;;;47.90;6.50;;;;;;;14.04;96.13;101073.81;5073996;28;20061;-55
2022/10/02 03:22:54;;;;;;;53.28;5.78;;;;;;;13.96;96.64;101080.00;5090650;28;20063;-54
2022/10/02 03:25:30;;;;;;;40.40;4.78;;;;;;;14.12;97.16;101080.00;5093593;28;20044;-54
2022/10/02 03:28:14;;;;;;;45.28;4.88;;;;;;;14.03;97.65;101089.00;5093990;28;20086;-54
2022/10/02 03:30:47;;;;;;;42.33;4.63;;;;;;;13.91;99.40;101083.16;5077280;28;20047;-54
2022/10/02 03:33:15;;;;;;;37.28;5.43;;;;;;;13.79;100.00;101088.03;5090314;28;20120;-55
2022/10/02 03:35:43;;;;;;;27.10;3.78;;;;;;;13.47;100.00;101088.00;5091671;28;20036;-55
2022/10/02 03:38:13;;;;;;;29.23;3.92;;;;;;;13.43;100.00;101098.16;5092340;28;20052;-55
2022/10/02 03:40:39;;;;;;;19.25;3.33;;;;;;;13.30;100.00;101092.41;5072942;28;20052;-54
2022/10/02 03:43:06;;;;;;;22.40;3.70;;;;;;;13.09;100.00;101083.03;5073302;28;20032;-54
2022/10/02 03:45:33;;;;;;;16.80;3.67;;;;;;;13.13;100.00;101083.56;5076004;28;20472;-55
2022/10/02 03:48:17;;;;;;;21.42;3.63;;;;;;;13.16;100.00;101088.56;5073428;28;20048;-55
2022/10/02 03:50:44;;;;;;;20.02;3.42;;;;;;;13.22;100.00;101085.25;5072854;28;20040;-54
2022/10/02 03:53:18;;;;;;;25.67;3.42;;;;;;;13.32;100.00;101091.31;5057800;28;20035;-55
2022/10/02 03:55:52;;;;;;;22.67;4.40;;;;;;;13.23;100.00;101084.25;5093513;28;20047;-55
2022/10/02 03:58:20;;;;;;;25.33;4.45;;;;;;;13.27;100.00;101085.59;5092448;28;20040;-55
2022/10/02 04:01:00;;;;;;;33.67;4.38;;;;;;;13.33;100.00;101081.47;5092545;28;20044;-55
2022/10/02 04:03:34;;;;;;;32.33;5.38;;;;;;;13.35;100.00;101082.13;5092693;28;20479;-55
2022/10/02 04:06:10;;;;;;;33.33;5.07;;;;;;;13.33;100.00;101079.63;5092657;28;20470;-55
2022/10/02 04:08:44;;;;;;;31.77;4.93;;;;;;;13.35;100.00;101079.47;5093154;28;20221;-55
2022/10/02 04:11:49;;;;;;;29.58;4.85;;;;;;;13.26;100.00;101078.59;5092513;28;20048;-54
2022/10/02 04:14:21;;;;;;;31.30;5.68;;;;;;;13.28;100.00;101076.63;5093132;28;20123;-55
2022/10/02 04:16:56;;;;;;;41.35;5.10;;;;;;;13.45;100.00;101077.50;5092549;28;20403;-55
2022/10/02 04:19:28;;;;;;;42.30;4.93;;;;;;;13.47;100.00;101072.00;5092145;28;20047;-55
2022/10/02 04:22:10;;;;;;;36.53;4.70;;;;;;;13.48;100.00;101081.66;5093162;28;20494;-55
2022/10/02 04:24:49;;;;;;;32.35;4.22;;;;;;;13.49;100.00;101081.50;5093009;28;20036;-55
2022/10/02 04:27:22;;;;;;;30.73;4.60;;;;;;;13.36;100.00;101083.81;5073285;28;20055;-55
2022/10/02 04:29:54;;;;;;;31.40;4.03;;;;;;;13.60;100.00;101075.00;5072956;28;20083;-55
2022/10/02 04:32:25;;;;;;;39.45;4.40;;;;;;;13.55;100.00;101088.00;5074165;28;20053;-55
2022/10/02 04:34:53;;;;;;;38.30;4.90;;;;;;;13.51;100.00;101090.16;5073212;28;20048;-56
2022/10/02 04:37:51;;;;;;;34.03;4.68;;;;;;;13.71;100.00;101092.50;5072354;28;20044;-55
2022/10/02 04:40:49;;;;;;;35.63;4.28;;;;;;;13.67;100.00;101081.34;5072271;28;20044;-55
2022/10/02 04:43:56;;;;;;;27.23;4.05;;;;;;;13.68;100.00;101088.34;5072454;28;20045;-55
2022/10/02 04:46:49;;;;;;;33.88;4.10;;;;;;;13.72;100.00;101087.00;5072732;28;20044;-55
2022/10/02 04:52:28;;;;;;;29.67;4.10;;;;;;;13.57;100.00;101100.16;5075661;27;20412;-54
2022/10/02 04:55:23;;;;;;;28.40;4.72;;;;;;;13.40;100.00;101095.81;5110726;28;20044;-55
2022/10/02 04:58:19;;;;;;;23.40;3.97;;;;;;;13.49;100.00;101110.81;5110734;28;20139;-54
2022/10/02 05:01:14;;;;;;;31.67;4.32;;;;;;;13.53;100.00;101098.00;5110734;28;20487;-55
2022/10/02 05:04:00;;;;;;;25.95;4.68;;;;;;;13.66;100.00;101100.16;5110082;28;20036;-55
2022/10/02 05:06:49;;;;;;;25.83;4.10;;;;;;;13.68;100.00;101099.03;5110452;28;20051;-53
2022/10/02 05:09:25;;;;;;;33.45;5.20;;;;;;;13.67;100.00;101101.84;5111012;28;20047;-54
2022/10/02 05:15:01;;;;;;;33.00;4.05;;;;;;;13.56;100.00;101111.81;5152312;27;20599;-54
2022/10/02 05:17:56;;;;;;;27.92;4.35;;;;;;;13.61;100.00;101120.16;5151844;27;20039;-53
2022/10/02 05:20:42;;;;;;;35.75;6.07;;;;;;;13.58;100.00;101111.66;5149614;27;20035;-54
2022/10/02 05:26:24;;;;;;;42.40;6.22;;;;;;;13.32;100.00;101122.44;5070645;28;20353;-53
2022/10/02 05:29:30;;;;;;;33.58;5.57;;;;;;;13.46;100.00;101119.13;5070128;28;20052;-53
2022/10/02 05:32:24;;;;;;;33.65;5.90;;;;;;;13.47;100.00;101091.47;5070229;28;20102;-54
2022/10/02 05:35:31;;;;;;;31.17;5.32;;;;;;;13.42;100.00;101117.78;5070159;28;20072;-54
2022/10/02 05:38:26;;;;;;;40.40;5.50;;;;;;;13.61;100.00;101122.81;5069906;28;20045;-55
2022/10/02 05:41:06;;;;;;;26.13;4.80;;;;;;;13.48;100.00;101113.63;5070148;28;20574;-53
2022/10/02 05:43:44;;;;;;;21.90;4.63;;;;;;;13.50;100.00;101115.16;5068990;28;20044;-54
2022/10/02 05:46:21;;;;;;;26.27;4.88;;;;;;;13.41;100.00;101122.28;5069997;28;20244;-54
2022/10/02 05:48:57;;;;;;;27.63;4.88;;;;;;;13.53;100.00;101119.31;5070048;28;20053;-54
2022/10/02 05:51:50;;;;;;;27.80;5.00;;;;;;;13.46;100.00;101115.63;5032438;28;21001;-54
2022/10/02 05:54:43;;;;;;;18.10;4.93;;;;;;;13.36;100.00;101118.44;5069938;28;20045;-54
2022/10/02 05:57:20;;;;;;;34.35;6.00;;;;;;;13.46;100.00;101120.97;5069597;28;20041;-54
2022/10/02 06:00:17;;;;;;;34.28;7.47;;;;;;;13.48;100.00;101127.81;5068722;28;20049;-53
2022/10/02 06:05:26;;;;;;;26.55;7.40;;;;;;;13.44;100.00;101129.97;5109829;27;20372;-54
2022/10/02 06:07:57;;;;;;;24.27;6.18;;;;;;;13.35;100.00;101135.41;5111023;28;20062;-54
2022/10/02 06:10:30;;;;;;;29.17;6.03;;;;;;;13.35;100.00;101143.41;5111144;28;20058;-54
2022/10/02 06:13:07;;;;;;;29.15;5.80;;;;;;;13.33;100.00;101154.22;5110633;28;20440;-55
2022/10/02 06:16:00;;;;;;;31.42;5.55;;;;;;;13.36;100.00;101161.91;5110978;28;20044;-55
2022/10/02 06:18:32;;;;;;;29.83;5.05;;;;;;;13.41;100.00;101164.09;5110804;28;20043;-54
2022/10/02 06:21:08;;;;;;;27.25;4.85;;;;;;;13.55;100.00;101160.81;5110949;28;20043;-54
2022/10/02 06:23:45;;;;;;;26.55;5.32;;;;;;;13.42;100.00;101165.75;5110831;28;20085;-55
2022/10/02 06:26:18;;;;;;;32.42;5.53;;;;;;;13.56;100.00;101162.47;5109626;28;20048;-54
2022/10/02 06:29:01;;;;;;;29.55;5.75;;;;;;;13.48;100.00;101167.78;5110963;28;20074;-55
2022/10/02 06:31:46;;;;;;;31.02;5.35;;;;;;;13.50;100.00;101171.13;5109326;28;20040;-54
2022/10/02 06:34:13;;;;;;;25.55;6.55;;;;;;;13.63;100.00;101173.31;5110835;28;20048;-54
2022/10/02 06:37:01;;;;;;;26.75;5.10;;;;;;;13.57;100.00;101164.16;5108943;28;20103;-54
2022/10/02 06:42:35;;;;;;;20.33;4.75;;;;;;;13.58;100.00;101165.78;5110727;27;20380;-54
2022/10/02 06:45:28;;;;;;;25.83;4.68;;;;;;;13.71;100.00;101173.31;5110960;28;20048;-54
2022/10/02 06:48:04;;;;;;;26.93;4.97;;;;;;;13.61;100.00;101169.97;5110485;28;20409;-54
2022/10/02 06:50:45;;;;;;;32.67;5.18;;;;;;;13.66;100.00;101180.13;5111166;28;20089;-54
2022/10/02 06:53:51;;;;;;;28.55;5.55;;;;;;;13.80;100.00;101182.16;5086327;28;20043;-53
2022/10/02 06:56:37;;;;;;;25.95;5.10;;;;;;;13.66;100.00;101181.00;5110593;28;20054;-54
2022/10/02 06:59:44;;;;;;;23.95;4.55;;;;;;;13.64;100.00;101180.28;5110766;28;20043;-53
2022/10/02 07:02:51;;;;;;;26.27;4.70;;;;;;;13.65;100.00;101189.16;5109508;28;20040;-53
2022/10/02 07:05:48;;;;;;;20.83;5.05;;;;;;;13.70;100.00;101189.47;5109947;28;20048;-54
2022/10/02 07:08:48;;;;;;;31.33;4.50;;;;;;;13.79;100.00;101196.50;5106941;28;20657;-54
2022/10/02 07:11:25;;;;;;;23.48;4.50;;;;;;;13.76;100.00;101203.00;5110065;28;20047;-54
2022/10/02 07:14:31;;;;;;;23.73;5.10;;;;;;;13.79;100.00;101193.84;5110077;28;20048;-52
2022/10/02 07:17:26;;;;;;;26.88;5.13;;;;;;;13.78;100.00;101189.50;5110334;28;20043;-56
2022/10/02 07:20:29;;;;;;;23.92;4.75;;;;;;;13.86;100.00;101186.88;5102341;28;20093;-54
2022/10/02 07:23:28;;;;;;;21.67;4.88;;;;;;;13.93;100.00;101197.69;5089622;28;20055;-54
2022/10/02 07:29:29;;;;;;;24.70;5.03;;;;;;;13.97;100.00;101207.00;5110600;27;20379;-54
2022/10/02 07:32:17;;;;;;;21.95;5.25;;;;;;;13.75;100.00;101205.81;5110807;28;20043;-58
2022/10/02 07:35:02;;;;;;;26.05;5.10;;;;;;;13.96;100.00;101216.84;5110784;28;20044;-53
2022/10/02 07:40:36;;;;;;;23.73;5.18;;;;;;;13.89;100.00;101212.34;5110433;27;20350;-55
2022/10/02 07:43:20;;;;;;;18.92;5.25;;;;;;;13.78;100.00;101221.50;5110929;28;20050;-54
2022/10/02 07:46:27;;;;;;;27.23;5.88;;;;;;;13.82;100.00;101221.03;5110648;28;20052;-53
2022/10/02 07:49:18;;;;;;;27.40;4.85;;;;;;;13.85;100.00;101209.19;5143330;27;20032;-53
2022/10/02 07:51:56;;;;;;;23.80;6.00;;;;;;;13.91;100.00;101221.84;5073011;28;20131;-54
2022/10/02 07:55:03;;;;;;;29.83;5.13;;;;;;;13.90;100.00;101225.53;5110646;28;20758;-55
2022/10/02 07:57:41;;;;;;;28.23;5.30;;;;;;;13.99;100.00;101240.53;5110354;28;20048;-54
2022/10/02 08:00:14;;;;;;;28.02;5.05;;;;;;;13.95;100.00;101235.69;5110396;28;20040;-55
2022/10/02 08:02:50;;;;;;;22.80;5.05;;;;;;;14.05;100.00;101230.22;5110432;28;20063;-54
2022/10/02 08:05:22;;;;;;;23.25;5.35;;;;;;;14.02;100.00;101242.91;5108746;28;20122;-52
2022/10/02 08:07:51;;;;;;;;;;;;;;;13.96;100.00;101248.88;5110454;28;20044;-53
2022/10/02 08:10:24;;;;;;;23.25;5.40;;;;;;;13.83;100.00;101244.00;5110529;28;19919;-55
2022/10/02 08:12:59;;;;;;;26.10;5.43;;;;;;;14.07;100.00;101252.22;5092544;28;20489;-55
2022/10/02 08:15:33;;;;;;;20.88;5.43;;;;;;;13.95;100.00;101255.22;5110055;28;20051;-54
2022/10/02 08:18:09;;;;;;;23.75;5.28;;;;;;;14.06;100.00;101261.22;5110100;28;20520;-54
2022/10/02 08:20:49;;;;;;;21.50;5.05;;;;;;;13.99;100.00;101253.06;5110489;28;20101;-55
2022/10/02 08:23:30;;;;;;;26.40;4.97;;;;;;;14.03;100.00;101257.06;5109928;28;20043;-54
2022/10/02 08:29:00;;;;;;;24.25;4.85;;;;;;;14.15;100.00;101276.22;5152117;27;20413;-54
2022/10/02 08:31:28;;;;;;;23.42;4.93;;;;;;;14.19;100.00;101267.75;5131249;28;20082;-54
2022/10/02 08:33:56;;;;;;;22.90;4.63;;;;;;;14.26;100.00;101259.94;5113039;28;20043;-54
2022/10/02 08:36:45;;;;;;;18.45;4.82;;;;;;;14.24;100.00;101259.22;5131111;28;20134;-54
2022/10/02 08:39:52;;;;;;;25.08;4.80;;;;;;;14.23;100.00;101252.25;5131255;28;20435;-54
2022/10/02 08:42:58;;;;;;;22.58;4.63;;;;;;;14.19;99.45;101254.41;5130805;28;20039;-55
2022/10/02 08:45:42;;;;;;;19.00;5.22;;;;;;;14.16;99.35;101256.56;5131213;28;20130;-55
2022/10/02 08:48:24;;;;;;;18.88;4.85;;;;;;;14.13;99.41;101267.56;5130391;28;20027;-54
2022/10/02 08:51:23;;;;;;;19.10;4.53;;;;;;;14.20;99.73;101273.91;5117472;28;20050;-54
2022/10/02 08:54:14;;;;;;;21.50;4.55;;;;;;;14.09;99.36;101282.25;5130427;28;20074;-55
2022/10/02 08:57:01;;;;;;;27.57;4.87;;;;;;;13.98;99.70;101278.03;5130682;28;20080;-55
2022/10/02 08:59:53;;;;;;;20.00;5.03;;;;;;;14.06;99.85;101277.22;5130366;28;20288;-54
2022/10/02 09:03:00;;;;;;;19.88;5.00;;;;;;;14.02;100.00;101279.38;5130493;28;20050;-54
2022/10/02 09:06:07;;;;;;;18.35;4.57;;;;;;;13.96;100.00;101280.88;5130195;28;20059;-55
2022/10/02 09:08:59;;;;;;;25.08;4.80;;;;;;;14.04;100.00;101289.88;5130317;28;20078;-54
2022/10/02 09:11:59;;;;;;;19.83;4.68;;;;;;;14.07;100.00;101290.41;5112608;28;20051;-55
2022/10/02 09:14:47;;;;;;;20.00;3.85;;;;;;;14.09;100.00;101296.41;5130232;28;20070;-55
2022/10/02 09:17:42;;;;;;;18.92;3.67;;;;;;;14.10;98.72;101300.75;5130380;28;20514;-55
2022/10/02 09:23:40;;;;;;;20.83;4.53;;;;;;;14.19;99.97;101293.59;5110898;27;20380;-54
2022/10/02 09:26:35;;;;;;;16.80;4.15;;;;;;;14.19;99.75;101298.94;5110438;28;20048;-56
2022/10/02 09:29:43;;;;;;;17.80;4.03;;;;;;;14.12;100.00;101287.25;5110688;28;20512;-55
2022/10/02 09:32:50;;;;;;;11.13;3.30;;;;;;;14.05;97.74;101291.56;5115120;28;20089;-55
2022/10/02 09:35:54;;;;;;;18.13;3.63;;;;;;;14.13;99.83;101297.75;5117743;28;20132;-55
2022/10/02 09:39:01;;;;;;;15.75;3.65;;;;;;;14.28;98.32;101300.63;5112497;28;20127;-56
2022/10/02 09:41:54;;;;;;;17.42;3.60;;;;;;;14.37;98.38;101299.63;5118217;28;20040;-56
2022/10/02 09:44:57;;;;;;;12.68;3.22;;;;;;;14.29;98.96;101296.09;5102537;28;20043;-55
2022/10/02 09:48:07;;;;;;;14.52;3.30;;;;;;;14.40;97.61;101295.78;5118142;27;20104;-53
2022/10/02 09:50:57;;;;;;;19.90;4.10;;;;;;;14.49;98.61;101296.63;5102785;28;20513;-56
2022/10/02 09:56:54;;;;;;;19.70;4.10;;;;;;;15.01;93.83;101298.97;5097107;27;20389;-57
2022/10/02 10:00:01;;;;;;;18.27;3.25;;;;;;;15.28;92.66;101299.56;5110259;28;20086;-57
2022/10/02 10:03:18;;;;;;;16.67;3.40;;;;;;;15.00;92.88;101296.47;5063518;28;20376;-58
2022/10/02 10:14:39;;;;;;;20.48;3.28;;;;;;;14.77;93.79;101316.69;5111154;27;20376;-56
2022/10/02 10:17:29;;;;;;;17.67;3.40;;;;;;;14.75;94.70;101320.50;5093223;28;20097;-56
2022/10/02 10:20:05;;;;;;;14.50;2.92;;;;;;;14.69;94.10;101324.69;5105676;28;20044;-56
2022/10/02 10:22:59;;;;;;;14.57;2.97;;;;;;;14.94;93.22;101322.84;5102862;28;20052;-56
2022/10/02 10:28:41;;;;;;;15.20;3.53;;;;;;;15.28;92.30;101326.28;5118035;27;20381;-56
2022/10/02 10:31:45;;;;;;;18.13;3.53;;;;;;;15.26;89.46;101326.50;5104354;28;20051;-58
2022/10/02 10:34:48;;;;;;;17.48;3.50;;;;;;;15.69;87.18;101339.53;5114117;28;20052;-56
2022/10/02 10:43:49;;;;;;;18.35;4.22;;;;;;;15.34;89.41;101330.97;5113477;27;20351;-56
2022/10/02 10:46:57;;;;;;;17.90;4.25;;;;;;;15.39;91.08;101343.81;5073477;28;20077;-57
2022/10/02 10:49:56;;;;;;;16.80;4.05;;;;;;;15.42;88.62;101344.28;5071906;28;20044;-57
2022/10/02 10:53:07;;;;;;;23.35;7.78;;;;;;;16.87;81.99;101354.59;5051386;28;20409;-57
2022/10/02 10:56:16;;;;;;;32.55;8.82;;;;;;;16.93;80.14;101351.19;5076177;28;20043;-57
2022/10/02 10:59:23;;;;;;;38.03;17.10;;;;;;;17.77;77.33;101352.81;5086850;28;20045;-60
2022/10/02 11:02:23;;;;;;;19.38;7.72;;;;;;;18.68;72.24;101365.84;5091777;28;20041;-57
2022/10/02 11:05:16;;;;;;;27.00;6.50;;;;;;;17.86;74.43;101364.34;5081932;28;20043;-57
2022/10/02 11:08:12;;;;;;;16.75;3.85;;;;;;;19.41;67.88;101371.84;5079098;28;20379;-57
2022/10/02 11:10:58;;;;;;;14.75;3.70;;;;;;;19.38;67.55;101359.63;5077188;28;20060;-56
2022/10/02 11:14:05;;;;;;;19.95;3.80;;;;;;;18.10;71.01;101373.91;5079396;28;20037;-56
2022/10/02 11:19:41;;;;;;;14.88;3.42;;;;;;;17.54;73.72;101369.06;5075070;28;20750;-55
2022/10/02 11:22:27;;;;;;;17.45;3.88;;;;;;;17.75;69.84;101368.28;5059205;28;20044;-55
2022/10/02 11:25:21;;;;;;;16.17;3.53;;;;;;;18.39;68.68;101368.47;5059270;28;20483;-55
2022/10/02 11:28:22;;;;;;;15.52;3.42;;;;;;;17.74;71.46;101369.31;5061080;28;20050;-56
2022/10/02 11:31:27;;;;;;;15.55;3.42;;;;;;;17.44;71.36;101371.97;5067482;28;20042;-63
2022/10/02 11:39:25;;;;;;;18.88;4.03;;;;;;;16.92;74.66;101388.88;5069773;27;1163980;-63
2022/10/02 11:42:20;;;;;;;19.88;4.57;;;;;;;17.29;75.01;101382.69;5099357;28;20043;-63
2022/10/02 11:45:26;;;;;;;19.70;4.32;;;;;;;17.75;72.23;101389.75;5103510;28;20048;-63
2022/10/02 11:48:08;;;;;;;19.95;3.67;;;;;;;17.94;70.53;101386.53;5107413;28;20063;-62
2022/10/02 11:51:09;;;;;;;17.10;3.60;;;;;;;18.03;69.90;101387.28;5095767;28;20054;-62
2022/10/02 11:54:02;;;;;;;15.05;3.42;;;;;;;17.56;68.83;101378.56;5110345;28;20052;-63
2022/10/02 12:02:04;;;;;;;19.45;4.20;;;;;;;17.82;73.21;101396.03;5105663;27;20701;-62
2022/10/02 12:05:03;;;;;;;24.40;4.15;;;;;;;18.02;70.82;101399.84;5109789;28;20040;-62
2022/10/02 12:08:00;;;;;;;16.38;3.97;;;;;;;17.92;70.65;101391.25;5105724;28;20052;-63
2022/10/02 12:10:40;;;;;;;15.93;3.55;;;;;;;17.77;72.85;101399.31;5110122;28;20108;-64
2022/10/02 12:13:45;;;;;;;16.77;3.55;;;;;;;17.59;69.23;101396.13;5102579;28;20497;-64
2022/10/02 12:16:52;;;;;;;18.10;3.72;;;;;;;17.69;67.08;101395.88;5110066;28;20044;-64
2022/10/02 12:26:57;;;;;;;16.88;3.38;;;;;;;18.32;64.10;101397.13;5105545;28;20072;-63
2022/10/02 12:28:49;;;;;;;;;;;;;;;18.44;64.43;101391.25;5105815;28;20063;-63
2022/10/02 12:31:44;;;;;;;14.45;3.28;;;;;;;18.79;61.09;101395.75;5106994;28;19924;-63
2022/10/02 12:34:37;;;;;;;14.13;3.45;;;;;;;19.22;59.09;101386.00;5110454;28;20048;-65
2022/10/02 12:37:30;;;;;;;16.58;3.65;;;;;;;19.41;58.17;101382.63;5104975;28;20040;-64
2022/10/02 12:40:30;;;;;;;19.55;4.22;;;;;;;20.24;56.36;101384.47;5086336;28;20450;-64
2022/10/02 12:43:25;;;;;;;15.60;3.30;;;;;;;20.70;55.09;101387.31;5089728;28;20052;-64
2022/10/02 12:49:11;;;;;;;19.98;4.20;;;;;;;20.69;57.29;101379.44;5090206;27;20394;-64
2022/10/02 12:54:51;;;;;;;26.08;3.90;;;;;;;19.88;56.57;101386.44;5106515;27;20363;-63
2022/10/02 12:58:03;;;;;;;14.85;3.50;;;;;;;19.71;57.95;101383.19;5104753;28;20382;-63
2022/10/02 13:00:22;;;;;;;17.15;4.03;;;;;;;19.36;56.20;101385.88;5099246;28;20044;-63
2022/10/02 13:03:19;;;;;;;17.23;3.83;;;;;;;19.06;56.10;101387.09;5082410;28;20491;-65
2022/10/02 13:06:17;;;;;;;14.13;3.20;;;;;;;19.00;56.00;101380.66;5089388;28;20052;-64
2022/10/02 13:09:01;;;;;;;13.70;3.70;;;;;;;19.45;55.43;101374.97;5085639;28;20054;-65
2022/10/02 13:14:50;;;;;;;20.85;4.70;;;;;;;18.94;58.83;101379.56;5106269;27;20391;-63
2022/10/02 13:17:37;;;;;;;15.10;4.18;;;;;;;19.04;60.15;101386.47;5110382;28;20052;-63
2022/10/02 13:23:36;;;;;;;23.40;4.70;;;;;;;18.90;58.76;101390.88;5110539;27;20832;-63
2022/10/02 13:26:25;;;;;;;;;;;;;;;18.60;60.22;101381.06;5106439;28;20048;-63
2022/10/02 13:29:14;;;;;;;22.92;4.43;;;;;;;18.57;60.96;101380.63;5110314;28;20300;-63
2022/10/02 13:32:21;;;;;;;16.52;4.30;;;;;;;18.28;60.93;101384.25;5105009;28;20036;-63
2022/10/02 13:35:23;;;;;;;22.58;4.10;;;;;;;18.11;61.91;101386.31;5110111;28;20058;-64
2022/10/02 13:38:15;;;;;;;17.10;4.28;;;;;;;18.27;60.52;101387.97;5106990;28;20055;-64
2022/10/02 13:41:15;;;;;;;19.60;4.30;;;;;;;18.61;59.49;101388.13;5110430;28;20497;-64
2022/10/02 13:44:05;;;;;;;16.83;4.07;;;;;;;18.59;58.71;101390.19;5110353;28;20292;-64
2022/10/02 13:47:08;;;;;;;21.58;4.13;;;;;;;18.50;58.56;101393.16;5112936;28;20051;-64
2022/10/02 13:50:15;;;;;;;16.85;3.97;;;;;;;18.78;58.09;101395.94;5121076;28;20481;-64
2022/10/02 13:53:15;;;;;;;20.02;4.03;;;;;;;18.22;60.78;101405.47;4991677;28;20052;-64
2022/10/02 13:55:46;;;;;;;18.67;4.15;;;;;;;18.07;62.50;101398.47;5121529;28;20137;-64
2022/10/02 13:58:37;;;;;;;16.13;3.75;;;;;;;17.83;61.98;101405.78;5120575;28;20062;-64
2022/10/02 14:01:29;;;;;;;15.38;3.88;;;;;;;17.70;61.01;101409.09;5115466;28;20051;-64